Ely, NV

2:13 AM PST on January 20, 2017 (GMT -0800)
South Murry St | | Change Station
Active Advisory: Winter Weather Advisory

Elev 6542 ft 39.23 °N, 114.90 °W | Updated 35 seconds ago

Partly Cloudy
Partly Cloudy
12.6 °F
Feels Like 13 °F
N
0.0
Wind Variable Wind from ESE

Today
High -- | Low -- °F
--% Chance of Precip.
Yesterday
High -- | Low -- °F
Precip. -- in
Pressure 29.64 in
Visibility 10.0 miles
Clouds Scattered Clouds 100 ft
Windchill 13 °F
Dew Point 11 °F
Humidity 93%
Rainfall 0.00 in
Snow Depth Not available.
6:54 AM 4:46 PM
Last Quarter, 45% visible
SPECI KELY 201005Z AUTO 17009KT 10SM SCT001 M12/M13 A2964 RMK AO2 I1000 T11171128
Pressure 29.64 in
Visibility 10.0 miles
Clouds Scattered Clouds 100 ft
Windchill 13 °F
Dew Point 11 °F
Humidity 93%
Rainfall 0.00 in
Snow Depth Not available.
6:54 AM 4:46 PM
Last Quarter, 45% visible
SPECI KELY 201005Z AUTO 17009KT 10SM SCT001 M12/M13 A2964 RMK AO2 I1000 T11171128

Get Your Daily Forecast Email!

Thanks for signing up!

Be on the lookout for a verification email in your inbox.

You'll start receiving the daily forecast at 8 AM.

×

10-Day Weather Forecast

Almanac

Astronomy

Jan. 20, 2017 Rise Set
Actual Time
Civil Twilight
Nautical Twilight
Astronomical Twilight
Moon
Length of Visible Light
Length of Day
Tomorrow will be .
, % of the Moon is Illuminated

Today's Extremes

State Highs State Lows

Community

WunderPhotos

Upload Photos

1,962,540 photos uploaded!

WunderBlog® & News

Nearby

Air Quality

  Air Quality AQ Index Pollutant
Not available.

Snow Depth

Station Depth Elevation

Earthquake Activity

City Distance Mag. Time & Date
Minimum magnitude displayed is 2.5.

Coastal Water Temperatures

Place Temperature

Stations

Nearby Weather Stations

Station Location Temp. Windchill Dew Point Humidity Wind Precip. Elev Updated Type
                   

Watches & Warnings

Winter Weather Advisory
Issued: 5:04 PM PST Jan. 19, 2017 – National Weather Service

... Winter Weather Advisory in effect from 10 am Friday to 4 am
PST Saturday...

The National Weather Service in Elko has issued a Winter Weather
Advisory for snow which is in effect from 10 am Friday to 4 am
PST Saturday.

* Snow accumulations... 1-3 inches in the valleys and 4-8 inches in
the mountains.

* Timing... heaviest snowfall expected between Friday afternoon to
Saturday morning.

* Impacts... main impacts will be to travel along Interstate 80 in
southeastern Elko County and highways 50, 93 and 6 in White Pine
County, especially at summits and passes. Icy spots and poor
visibility will make travel difficult at times.

* For a detailed view of the hazard area, visit
http://www.Wrh.NOAA.Gov/map.

Precautionary/preparedness actions...

A Winter Weather Advisory means that travel difficulties are
expected due to wintry conditions. Be prepared for slippery roads
and limited visibilities, and use caution while driving. For the
latest Road conditions call 511 or visit http://www.Nvroads.Com.



99